Time;durP1;ratioP1;P1;durP2;ratioP2;P2;SDS_P1;SDS_P2;PMS_P1;PMS_P2;Temp;Humidity;BMP_temperature;BMP_pressure;BME280_temperature;BME280_humidity;BME280_pressure;Samples;Min_cycle;Max_cycle;Signal;HPM_P1;HPM_P2
2021/04/05 00:02:50;;;;;;;3.38;1.80;;;4.60;73.50;;;;;;5092327;28;20048;-51
2021/04/05 00:05:54;;;;;;;3.42;1.95;;;4.70;74.40;;;;;;5092378;28;20036;-52
2021/04/05 00:08:58;;;;;;;5.50;2.65;;;4.50;74.40;;;;;;5091976;28;20040;-51
2021/04/05 00:12:04;;;;;;;7.47;2.50;;;4.40;74.70;;;;;;5092243;28;20036;-49
2021/04/05 00:15:11;;;;;;;5.10;2.10;;;4.40;75.10;;;;;;5091860;28;20390;-53
2021/04/05 00:18:17;;;;;;;4.65;2.10;;;4.30;75.90;;;;;;5084354;28;20048;-50
2021/04/05 00:21:22;;;;;;;10.30;2.17;;;4.20;76.50;;;;;;5081594;28;20036;-54
2021/04/05 00:24:26;;;;;;;5.88;2.28;;;4.10;76.80;;;;;;5092034;28;20051;-52
2021/04/05 00:27:31;;;;;;;3.65;1.90;;;4.10;76.90;;;;;;5091911;28;20479;-51
2021/04/05 00:30:36;;;;;;;4.00;2.08;;;4.00;77.20;;;;;;5091929;28;20052;-54
2021/04/05 00:33:40;;;;;;;4.65;2.28;;;3.90;77.70;;;;;;5092272;28;20036;-50
2021/04/05 00:36:45;;;;;;;3.92;2.17;;;4.00;77.70;;;;;;5091802;28;20028;-50
2021/04/05 00:39:48;;;;;;;7.18;1.75;;;4.00;78.30;;;;;;5091557;28;20433;-48
2021/04/05 00:42:52;;;;;;;9.55;2.65;;;4.00;77.90;;;;;;5090455;28;20024;-52
2021/04/05 00:45:56;;;;;;;3.33;2.33;;;4.00;78.30;;;;;;5091530;28;20110;-49
2021/04/05 00:49:02;;;;;;;5.70;2.10;;;3.90;78.10;;;;;;5091843;28;20036;-48
2021/04/05 00:52:07;;;;;;;6.22;2.35;;;4.00;78.40;;;;;;5090850;28;20032;-49
2021/04/05 00:55:13;;;;;;;4.18;2.17;;;4.00;78.10;;;;;;5091421;28;20044;-48
2021/04/05 00:58:18;;;;;;;4.57;2.10;;;4.00;78.30;;;;;;5091388;28;20040;-51
2021/04/05 01:01:25;;;;;;;3.70;2.30;;;4.00;78.60;;;;;;5090820;28;20028;-48
2021/04/05 01:04:29;;;;;;;6.78;2.10;;;4.00;78.50;;;;;;5091317;28;20040;-48
2021/04/05 01:07:34;;;;;;;4.18;2.17;;;4.00;78.30;;;;;;5091369;28;20044;-48
2021/04/05 01:10:38;;;;;;;6.28;2.17;;;4.10;78.50;;;;;;5090559;28;20032;-48
2021/04/05 01:13:43;;;;;;;7.05;2.10;;;4.10;78.80;;;;;;5090780;28;20044;-48
2021/04/05 01:16:47;;;;;;;6.07;1.90;;;4.20;78.40;;;;;;5090387;28;20040;-48
2021/04/05 01:19:51;;;;;;;5.15;2.10;;;4.20;77.90;;;;;;5090669;28;20032;-49
2021/04/05 01:22:56;;;;;;;2.45;1.77;;;4.30;78.10;;;;;;5090935;28;20040;-49
2021/04/05 01:26:01;;;;;;;4.00;2.47;;;4.20;78.30;;;;;;5076335;28;20040;-49
2021/04/05 01:29:05;;;;;;;4.85;2.25;;;4.20;77.90;;;;;;5082722;28;20294;-47
2021/04/05 01:32:09;;;;;;;4.80;2.42;;;4.20;78.30;;;;;;5090521;28;20056;-50
2021/04/05 01:35:13;;;;;;;5.43;1.90;;;4.20;78.10;;;;;;5077341;28;20048;-51
2021/04/05 01:38:20;;;;;;;4.55;2.38;;;4.20;78.30;;;;;;5090344;28;20028;-50
2021/04/05 01:41:31;;;;;;;5.97;2.03;;;3.80;79.50;;;;;;5090290;28;20044;-48
2021/04/05 01:44:38;;;;;;;4.13;2.15;;;3.90;79.80;;;;;;5077615;28;20436;-51
2021/04/05 01:47:42;;;;;;;3.67;2.05;;;3.70;80.50;;;;;;5090063;28;20028;-49
2021/04/05 01:50:46;;;;;;;9.40;3.00;;;3.70;81.10;;;;;;5089749;28;20043;-48
2021/04/05 01:53:51;;;;;;;3.47;2.00;;;3.70;80.60;;;;;;5090560;28;20040;-48
2021/04/05 01:56:55;;;;;;;4.05;2.03;;;3.80;80.40;;;;;;5089912;28;20043;-48
2021/04/05 01:59:59;;;;;;;2.95;1.80;;;3.80;80.30;;;;;;5072698;28;20028;-50
2021/04/05 02:03:08;;;;;;;3.28;1.90;;;3.80;79.80;;;;;;5077459;28;20502;-49
2021/04/05 02:06:16;;;;;;;2.47;1.60;;;3.90;79.60;;;;;;5089766;28;20031;-48
2021/04/05 02:09:21;;;;;;;2.97;1.85;;;3.90;79.60;;;;;;5089744;28;20399;-50
2021/04/05 02:12:25;;;;;;;4.75;1.60;;;4.00;78.70;;;;;;5089787;28;20411;-48
2021/04/05 02:15:33;;;;;;;2.83;1.60;;;4.10;78.40;;;;;;5089106;28;20526;-48
2021/04/05 02:18:37;;;;;;;3.88;2.10;;;4.10;78.10;;;;;;5076480;28;20032;-48
2021/04/05 02:21:46;;;;;;;4.15;1.83;;;4.10;78.30;;;;;;5088376;28;20036;-48
2021/04/05 02:24:50;;;;;;;3.45;1.65;;;4.10;78.60;;;;;;5089474;28;20502;-50
2021/04/05 02:27:55;;;;;;;3.45;1.90;;;4.10;78.30;;;;;;5089871;28;20028;-48
2021/04/05 02:31:02;;;;;;;5.13;2.60;;;4.20;78.30;;;;;;5089341;28;20048;-49
2021/04/05 02:34:12;;;;;;;8.15;2.05;;;4.20;78.20;;;;;;5077692;28;20028;-51
2021/04/05 02:37:16;;;;;;;2.50;1.60;;;4.20;78.30;;;;;;5075118;28;20048;-48
2021/04/05 02:40:21;;;;;;;3.75;1.70;;;4.10;78.30;;;;;;5089285;28;20032;-48
2021/04/05 02:43:26;;;;;;;3.78;2.03;;;4.10;78.30;;;;;;5089062;28;20499;-49
2021/04/05 02:46:31;;;;;;;3.80;2.00;;;4.00;79.30;;;;;;5087935;28;20510;-49
2021/04/05 02:49:36;;;;;;;3.83;1.80;;;4.00;79.40;;;;;;5089324;28;20040;-48
2021/04/05 02:52:41;;;;;;;6.10;1.85;;;4.00;79.50;;;;;;5088609;28;20398;-51
2021/04/05 02:55:46;;;;;;;5.25;1.83;;;4.00;78.90;;;;;;5088950;28;20036;-47
2021/04/05 02:58:51;;;;;;;12.52;4.07;;;4.00;79.20;;;;;;5089412;28;20036;-48
2021/04/05 03:01:58;;;;;;;4.45;2.15;;;3.90;79.70;;;;;;5088578;28;20036;-53
2021/04/05 03:05:08;;;;;;;3.17;1.95;;;3.80;80.20;;;;;;5089498;28;20415;-50
2021/04/05 03:08:14;;;;;;;5.40;1.70;;;3.80;80.20;;;;;;5077002;28;20040;-48
2021/04/05 03:11:21;;;;;;;4.13;2.83;;;3.70;79.80;;;;;;5088933;28;20036;-49
2021/04/05 03:14:27;;;;;;;4.35;2.15;;;3.70;80.00;;;;;;5089097;28;20040;-49
2021/04/05 03:17:33;;;;;;;4.10;2.10;;;3.90;79.40;;;;;;5089507;28;20044;-49
2021/04/05 03:20:38;;;;;;;2.40;1.70;;;4.00;78.90;;;;;;5089460;28;20036;-48
2021/04/05 03:23:43;;;;;;;4.38;1.80;;;4.00;78.80;;;;;;5089987;28;20044;-48
2021/04/05 03:26:48;;;;;;;3.75;1.80;;;3.90;79.90;;;;;;5079633;28;20050;-49
2021/04/05 03:29:55;;;;;;;2.40;1.70;;;3.90;79.70;;;;;;5093795;28;20044;-49
2021/04/05 03:33:09;;;;;;;3.20;1.67;;;3.90;78.30;;;;;;5093099;28;20044;-48
2021/04/05 03:36:29;;;;;;;3.42;1.67;;;4.10;78.10;;;;;;5093041;28;20044;-48
2021/04/05 03:39:34;;;;;;;3.03;1.60;;;4.10;77.80;;;;;;5093827;28;20036;-48
2021/04/05 03:42:45;;;;;;;3.28;1.90;;;4.10;78.30;;;;;;5080001;28;20490;-48
2021/04/05 03:45:56;;;;;;;4.13;1.88;;;4.00;78.30;;;;;;5092077;28;20028;-48
2021/04/05 03:49:02;;;;;;;3.47;1.40;;;4.00;78.20;;;;;;5092759;28;20036;-51
2021/04/05 03:52:24;;;;;;;5.13;1.60;;;4.00;78.20;;;;;;5091787;28;20383;-48
2021/04/05 03:55:31;;;;;;;2.63;1.50;;;3.90;78.40;;;;;;5092363;28;20036;-48
2021/04/05 03:58:37;;;;;;;2.50;1.90;;;3.90;78.40;;;;;;5092777;28;20032;-48
2021/04/05 04:01:53;;;;;;;2.88;1.67;;;3.80;78.90;;;;;;5091891;28;20028;-49
2021/04/05 04:05:09;;;;;;;2.75;1.90;;;3.80;79.10;;;;;;5081333;28;20405;-49
2021/04/05 04:08:39;;;;;;;3.10;1.48;;;3.80;78.90;;;;;;5079945;28;20040;-48
2021/04/05 04:11:47;;;;;;;2.80;1.85;;;3.80;78.60;;;;;;5076926;28;20032;-48
2021/04/05 04:14:53;;;;;;;5.75;2.13;;;3.80;78.20;;;;;;5088498;28;20387;-53
2021/04/05 04:17:59;;;;;;;2.38;1.65;;;3.90;78.30;;;;;;5079597;28;20407;-51
2021/04/05 04:21:08;;;;;;;2.38;1.60;;;4.00;77.90;;;;;;5092206;28;20036;-49
2021/04/05 04:24:12;;;;;;;3.35;1.73;;;4.00;78.00;;;;;;5085255;28;20032;-48
2021/04/05 04:27:17;;;;;;;2.80;1.45;;;3.90;78.10;;;;;;5091988;28;20036;-48
2021/04/05 04:30:32;;;;;;;2.47;1.75;;;3.80;78.70;;;;;;5080017;28;20036;-49
2021/04/05 04:33:36;;;;;;;2.85;1.50;;;3.80;79.60;;;;;;5078221;28;20043;-48
2021/04/05 04:36:40;;;;;;;2.97;1.63;;;3.80;79.30;;;;;;5090062;28;20424;-48
2021/04/05 04:39:45;;;;;;;3.47;1.58;;;3.90;78.70;;;;;;5091148;28;20044;-49
2021/04/05 04:42:50;;;;;;;2.42;1.70;;;3.90;78.70;;;;;;5080148;28;20040;-50
2021/04/05 04:45:54;;;;;;;2.67;2.05;;;3.80;79.00;;;;;;5077721;28;20032;-48
2021/04/05 04:49:04;;;;;;;6.90;3.08;;;3.70;80.20;;;;;;5091608;28;20044;-48
2021/04/05 04:52:08;;;;;;;1.95;1.45;;;3.50;80.40;;;;;;5091357;28;20036;-48
2021/04/05 04:55:12;;;;;;;4.07;1.60;;;3.50;80.10;;;;;;5091385;28;20388;-48
2021/04/05 04:58:17;;;;;;;2.15;1.33;;;3.50;80.60;;;;;;5087406;28;20041;-48
2021/04/05 05:01:24;;;;;;;2.25;1.48;;;3.60;80.60;;;;;;5082944;28;20392;-49
2021/04/05 05:04:30;;;;;;;5.38;2.03;;;3.70;79.80;;;;;;5090944;28;20032;-48
2021/04/05 05:07:35;;;;;;;2.70;1.80;;;3.80;79.60;;;;;;5091140;28;20036;-49
2021/04/05 05:10:39;;;;;;;11.52;1.85;;;3.80;79.50;;;;;;5091440;28;20036;-49
2021/04/05 05:13:43;;;;;;;5.03;1.70;;;3.70;80.90;;;;;;5090955;28;20047;-48
2021/04/05 05:16:49;;;;;;;4.43;1.73;;;3.60;80.80;;;;;;5078876;28;20040;-49
2021/04/05 05:19:53;;;;;;;4.90;2.63;;;3.60;81.00;;;;;;5091481;28;20042;-48
2021/04/05 05:23:03;;;;;;;4.80;2.80;;;3.60;81.40;;;;;;5079175;28;20036;-49
2021/04/05 05:26:09;;;;;;;3.03;2.40;;;3.60;81.90;;;;;;5077600;28;20041;-48
2021/04/05 05:29:17;;;;;;;3.65;2.10;;;3.70;82.00;;;;;;5076008;28;20040;-48
2021/04/05 05:32:22;;;;;;;3.97;2.25;;;3.70;81.90;;;;;;5074517;28;20037;-49
2021/04/05 05:35:27;;;;;;;6.35;2.60;;;3.70;82.10;;;;;;5070486;28;20036;-50
2021/04/05 05:38:32;;;;;;;5.28;3.00;;;3.60;82.60;;;;;;5073853;28;20383;-49
2021/04/05 05:41:56;;;;;;;9.50;2.95;;;5.00;82.70;;;;;;5078715;28;20032;-49
2021/04/05 05:45:08;;;;;;;3.88;2.25;;;9.10;74.30;;;;;;5069756;28;20478;-49
2021/04/05 05:48:26;;;;;;;7.03;3.38;;;12.50;67.90;;;;;;5072399;28;20040;-49
2021/04/05 05:52:00;;;;;;;6.70;3.30;;;14.90;61.60;;;;;;5071467;28;20059;-50
2021/04/05 05:55:20;;;;;;;4.45;2.67;;;17.10;55.90;;;;;;5080046;28;20047;-50
2021/04/05 05:59:05;;;;;;;3.85;2.20;;;15.80;56.00;;;;;;5076953;28;20043;-49
2021/04/05 06:02:35;;;;;;;4.93;3.10;;;17.80;53.80;;;;;;5030571;28;20044;-48
2021/04/05 06:06:04;;;;;;;4.43;2.80;;;18.40;52.90;;;;;;5076244;28;20051;-45
2021/04/05 06:09:19;;;;;;;8.57;2.78;;;19.00;52.10;;;;;;5080483;28;21592;-48
2021/04/05 06:13:05;;;;;;;4.82;2.22;;;19.60;49.90;;;;;;5076339;28;20052;-50
2021/04/05 06:16:31;;;;;;;4.05;2.40;;;18.40;51.10;;;;;;5037136;28;20064;-49
2021/04/05 06:19:57;;;;;;;10.00;5.10;;;18.30;50.20;;;;;;5031264;28;20031;-47
2021/04/05 06:23:22;;;;;;;5.68;3.85;;;18.00;50.80;;;;;;5083905;28;20042;-47
2021/04/05 06:26:52;;;;;;;5.65;2.85;;;19.20;50.60;;;;;;5070967;28;20059;-47
2021/04/05 06:30:02;;;;;;;4.57;3.30;;;20.50;47.70;;;;;;5070633;28;20059;-48
2021/04/05 06:33:38;;;;;;;14.23;8.43;;;21.80;46.60;;;;;;5076882;28;20054;-48
2021/04/05 06:36:45;;;;;;;5.00;3.75;;;21.60;45.40;;;;;;5077655;28;20505;-48
2021/04/05 06:39:54;;;;;;;3.38;2.60;;;22.10;44.50;;;;;;5082555;28;20043;-48
2021/04/05 06:43:04;;;;;;;14.32;4.85;;;21.50;44.90;;;;;;5077689;28;20035;-47
2021/04/05 06:46:54;;;;;;;4.70;2.10;;;21.70;45.40;;;;;;5082991;28;20132;-51
2021/04/05 06:50:18;;;;;;;4.35;2.78;;;22.40;44.40;;;;;;5063485;28;20051;-48
2021/04/05 06:53:38;;;;;;;8.77;4.30;;;22.60;44.30;;;;;;5079886;28;20427;-51
2021/04/05 06:56:48;;;;;;;6.00;3.63;;;17.50;48.10;;;;;;5078388;28;20039;-49
2021/04/05 07:00:07;;;;;;;5.43;3.28;;;16.10;51.80;;;;;;5081726;28;20043;-50
2021/04/05 07:03:16;;;;;;;4.25;3.08;;;16.30;52.40;;;;;;5074214;28;20044;-48
2021/04/05 07:06:48;;;;;;;7.40;3.33;;;17.20;51.70;;;;;;5078652;28;20513;-50
2021/04/05 07:10:06;;;;;;;6.68;3.38;;;15.10;54.10;;;;;;5079988;28;20047;-48
2021/04/05 07:13:36;;;;;;;11.40;6.28;;;15.80;53.10;;;;;;5072042;28;20533;-48
2021/04/05 07:17:13;;;;;;;8.25;5.43;;;17.10;52.20;;;;;;5071414;28;20044;-48
2021/04/05 07:20:39;;;;;;;8.30;5.20;;;17.60;52.00;;;;;;5074877;28;20040;-48
2021/04/05 07:24:20;;;;;;;6.93;4.43;;;18.20;50.80;;;;;;5075223;28;20398;-47
2021/04/05 07:27:37;;;;;;;6.85;4.22;;;18.80;49.90;;;;;;5071439;28;20048;-50
2021/04/05 07:30:47;;;;;;;9.65;5.50;;;19.70;47.50;;;;;;5070151;28;20040;-52
2021/04/05 07:33:57;;;;;;;8.40;4.40;;;17.60;49.30;;;;;;5073292;28;20036;-52
2021/04/05 07:37:04;;;;;;;7.80;4.38;;;17.80;47.80;;;;;;5074890;28;20059;-48
2021/04/05 07:40:29;;;;;;;9.70;4.68;;;16.90;47.50;;;;;;5075774;28;20649;-48
2021/04/05 07:43:40;;;;;;;11.38;5.30;;;16.90;49.10;;;;;;5074260;28;20035;-51
2021/04/05 07:46:51;;;;;;;9.95;5.43;;;18.40;47.50;;;;;;5076365;28;20039;-48
2021/04/05 07:50:04;;;;;;;10.60;6.72;;;18.60;47.90;;;;;;5076821;28;20052;-49
2021/04/05 07:53:25;;;;;;;12.10;6.75;;;19.00;47.30;;;;;;5079716;28;20410;-52
2021/04/05 07:56:53;;;;;;;11.02;6.60;;;18.70;48.10;;;;;;5075382;28;20048;-52
2021/04/05 08:00:31;;;;;;;10.70;6.38;;;16.60;49.10;;;;;;5077439;28;20039;-52
2021/04/05 08:03:46;;;;;;;8.82;5.20;;;16.70;50.50;;;;;;5071456;28;20067;-53
2021/04/05 08:06:58;;;;;;;6.40;4.28;;;16.70;49.80;;;;;;5085995;28;20051;-50
2021/04/05 08:10:07;;;;;;;5.97;3.80;;;16.70;48.50;;;;;;5079665;28;20518;-55
2021/04/05 08:13:27;;;;;;;4.72;2.80;;;17.20;47.10;;;;;;5074067;28;20039;-53
2021/04/05 08:16:50;;;;;;;6.85;3.55;;;20.10;45.40;;;;;;5081707;28;20047;-54
2021/04/05 08:20:18;;;;;;;5.47;3.53;;;22.70;42.80;;;;;;5074387;28;20427;-52
2021/04/05 08:23:28;;;;;;;6.97;3.92;;;21.90;44.00;;;;;;5086779;28;20035;-54
2021/04/05 08:26:37;;;;;;;5.78;4.00;;;21.80;43.70;;;;;;5075214;28;20047;-53
2021/04/05 08:30:07;;;;;;;7.57;4.68;;;22.90;42.30;;;;;;5074127;28;20055;-52
2021/04/05 08:33:43;;;;;;;7.28;4.50;;;24.10;41.30;;;;;;5077698;28;20051;-55
2021/04/05 08:36:50;;;;;;;5.93;3.03;;;23.70;38.60;;;;;;5078592;28;20043;-51
2021/04/05 08:40:06;;;;;;;4.00;3.10;;;22.40;41.80;;;;;;5077365;28;20051;-54
2021/04/05 08:43:22;;;;;;;6.47;4.20;;;22.60;40.90;;;;;;5080500;28;20043;-52
2021/04/05 08:46:31;;;;;;;6.97;4.28;;;24.40;40.50;;;;;;5071428;28;20055;-53
2021/04/05 08:49:37;;;;;;;5.60;3.58;;;25.60;39.30;;;;;;5076701;28;20035;-53
2021/04/05 08:52:47;;;;;;;4.93;2.72;;;23.40;40.30;;;;;;5081542;28;20047;-55
2021/04/05 08:55:57;;;;;;;4.03;2.70;;;24.40;39.70;;;;;;5081834;28;20047;-49
2021/04/05 08:59:08;;;;;;;6.18;2.70;;;24.60;39.40;;;;;;5084107;28;20039;-53
2021/04/05 09:02:24;;;;;;;5.35;2.95;;;23.90;38.30;;;;;;5078186;28;20044;-54
2021/04/05 09:05:32;;;;;;;5.88;2.92;;;26.60;38.50;;;;;;5070315;28;20509;-51
2021/04/05 09:08:37;;;;;;;3.85;2.28;;;18.90;41.30;;;;;;5071598;28;20409;-49
2021/04/05 09:11:43;;;;;;;4.35;2.53;;;21.20;40.70;;;;;;5076930;28;20035;-53
2021/04/05 09:15:25;;;;;;;4.22;2.80;;;25.60;39.30;;;;;;5080236;28;20418;-52
2021/04/05 09:18:49;;;;;;;4.00;2.38;;;23.10;37.80;;;;;;5072231;28;20039;-50
2021/04/05 09:22:28;;;;;;;7.55;5.03;;;25.50;38.30;;;;;;5076755;28;20110;-53
2021/04/05 09:25:55;;;;;;;6.28;3.80;;;27.40;36.80;;;;;;5072866;28;20421;-48
2021/04/05 09:29:47;;;;;;;7.45;3.92;;;25.10;37.30;;;;;;5071398;28;20070;-51
2021/04/05 09:33:15;;;;;;;5.60;3.55;;;26.40;37.50;;;;;;5048933;28;20051;-51
2021/04/05 09:37:10;;;;;;;3.85;2.72;;;23.20;38.00;;;;;;5067972;28;20048;-50
2021/04/05 09:40:53;;;;;;;4.30;2.60;;;25.90;37.70;;;;;;5071055;28;20046;-52
2021/04/05 09:44:21;;;;;;;7.63;2.88;;;22.00;37.60;;;;;;5085213;28;20036;-53
2021/04/05 09:47:44;;;;;;;6.40;3.42;;;26.20;37.40;;;;;;5078498;28;20047;-53
2021/04/05 09:51:23;;;;;;;3.00;1.77;;;24.20;37.80;;;;;;5087239;28;20118;-53
2021/04/05 09:54:35;;;;;;;5.40;1.77;;;23.50;38.30;;;;;;5080715;28;20118;-49
2021/04/05 09:57:49;;;;;;;2.60;1.67;;;22.80;38.00;;;;;;5079349;28;20039;-49
2021/04/05 10:01:02;;;;;;;3.17;2.00;;;26.60;35.00;;;;;;5075705;28;20095;-50
2021/04/05 10:04:11;;;;;;;5.20;2.67;;;29.40;33.70;;;;;;5085278;28;20790;-53
2021/04/05 10:07:17;;;;;;;4.60;3.05;;;28.70;34.40;;;;;;5073145;28;20050;-53
2021/04/05 10:10:24;;;;;;;4.05;1.95;;;28.70;34.60;;;;;;5075906;28;20047;-48
2021/04/05 10:13:30;;;;;;;6.82;1.98;;;28.60;34.10;;;;;;5073317;28;21187;-49
2021/04/05 10:16:36;;;;;;;4.57;2.70;;;27.00;35.90;;;;;;5074579;28;20050;-48
2021/04/05 10:19:42;;;;;;;2.97;1.88;;;23.50;37.00;;;;;;5072081;28;20040;-51
2021/04/05 10:22:47;;;;;;;4.70;2.30;;;22.40;38.40;;;;;;5072875;28;20130;-52
2021/04/05 10:25:55;;;;;;;5.15;2.00;;;23.90;36.80;;;;;;5072220;28;20050;-51
2021/04/05 10:29:07;;;;;;;5.38;2.60;;;24.50;36.30;;;;;;5076231;28;20039;-48
2021/04/05 10:32:15;;;;;;;5.53;2.65;;;20.00;39.30;;;;;;5072788;28;20043;-53
2021/04/05 10:35:25;;;;;;;5.10;2.53;;;21.60;40.50;;;;;;5075088;28;20052;-52
2021/04/05 10:38:29;;;;;;;4.57;2.33;;;22.60;39.00;;;;;;5073746;28;20048;-51
2021/04/05 10:41:42;;;;;;;3.10;2.30;;;26.70;37.40;;;;;;5073175;28;20040;-49
2021/04/05 10:44:48;;;;;;;3.40;2.15;;;30.70;35.40;;;;;;5069087;28;20513;-47
2021/04/05 10:48:13;;;;;;;3.95;2.03;;;28.60;34.50;;;;;;5069908;28;20043;-54
2021/04/05 10:51:26;;;;;;;2.53;2.00;;;29.20;34.80;;;;;;5080322;28;20052;-53
2021/04/05 10:54:39;;;;;;;2.42;1.55;;;30.80;33.90;;;;;;5078417;28;20043;-48
2021/04/05 10:57:46;;;;;;;11.52;6.43;;;28.60;33.60;;;;;;5082180;28;20039;-51
2021/04/05 11:00:57;;;;;;;4.47;2.45;;;31.00;34.60;;;;;;5076990;28;20059;-50
2021/04/05 11:04:06;;;;;;;3.45;1.67;;;33.10;31.90;;;;;;5080479;28;20048;-54
2021/04/05 11:07:12;;;;;;;4.40;1.58;;;33.70;30.80;;;;;;5080368;28;20047;-50
2021/04/05 11:10:20;;;;;;;2.67;1.40;;;30.20;31.90;;;;;;5079186;28;20055;-49
2021/04/05 11:13:26;;;;;;;1.80;1.17;;;31.60;31.30;;;;;;5083011;28;20039;-51
2021/04/05 11:16:32;;;;;;;2.60;1.50;;;31.30;31.30;;;;;;5074858;28;20043;-50
2021/04/05 11:19:51;;;;;;;3.58;1.20;;;31.70;31.10;;;;;;5073240;28;20047;-49
2021/04/05 11:23:18;;;;;;;3.28;1.15;;;32.20;30.40;;;;;;5079776;28;20048;-51
2021/04/05 11:26:30;;;;;;;3.25;1.40;;;33.00;29.40;;;;;;5083158;28;20051;-50
2021/04/05 11:29:37;;;;;;;1.83;1.13;;;32.30;29.70;;;;;;5072939;28;20039;-50
2021/04/05 11:32:41;;;;;;;2.15;0.90;;;31.90;29.60;;;;;;5087380;28;20039;-48
2021/04/05 11:35:46;;;;;;;2.45;1.27;;;27.40;30.00;;;;;;5082075;28;20056;-49
2021/04/05 11:38:53;;;;;;;2.30;1.27;;;22.90;32.40;;;;;;5082990;28;20044;-50
2021/04/05 11:42:01;;;;;;;2.35;0.93;;;26.00;31.30;;;;;;5076769;28;20047;-50
2021/04/05 11:45:08;;;;;;;1.73;1.15;;;28.60;29.80;;;;;;5066829;28;20394;-54
2021/04/05 11:48:21;;;;;;;3.60;1.13;;;29.10;31.10;;;;;;5073238;28;20040;-50
2021/04/05 11:51:27;;;;;;;1.27;0.80;;;31.40;30.90;;;;;;5073539;28;20047;-48
2021/04/05 11:54:56;;;;;;;1.50;0.82;;;33.20;30.60;;;;;;5077449;28;20059;-49
2021/04/05 11:58:12;;;;;;;2.03;1.02;;;34.90;29.30;;;;;;5078833;28;20052;-51
2021/04/05 12:01:21;;;;;;;1.65;0.90;;;36.60;29.70;;;;;;5071891;28;20509;-50
2021/04/05 12:04:45;;;;;;;1.48;0.80;;;35.20;28.50;;;;;;5074129;28;20035;-51
2021/04/05 12:07:56;;;;;;;1.38;1.13;;;35.90;28.30;;;;;;5071684;28;20048;-49
2021/04/05 12:11:05;;;;;;;2.45;1.13;;;35.90;29.00;;;;;;5072081;28;20047;-55
2021/04/05 12:14:15;;;;;;;1.70;1.23;;;34.70;28.90;;;;;;5072636;28;20529;-49
2021/04/05 12:17:22;;;;;;;3.05;1.10;;;35.40;29.50;;;;;;5071142;28;20289;-52
2021/04/05 12:20:30;;;;;;;3.05;1.05;;;30.80;29.50;;;;;;5070384;28;20047;-53
2021/04/05 12:23:36;;;;;;;2.72;1.40;;;31.80;30.50;;;;;;5073850;28;20666;-52
2021/04/05 12:26:41;;;;;;;2.50;1.23;;;32.70;30.70;;;;;;5072157;28;20040;-50
2021/04/05 12:29:46;;;;;;;1.50;1.20;;;33.20;30.30;;;;;;5071517;28;20051;-51
2021/04/05 12:32:53;;;;;;;7.70;1.80;;;33.20;30.60;;;;;;5072983;28;20039;-50
2021/04/05 12:35:59;;;;;;;5.22;1.85;;;34.80;31.50;;;;;;5074054;28;20522;-51
2021/04/05 12:39:08;;;;;;;3.22;1.20;;;35.10;31.20;;;;;;5070009;28;20048;-48
2021/04/05 12:42:13;;;;;;;2.75;1.30;;;29.20;31.80;;;;;;5072482;28;20529;-50
2021/04/05 12:45:20;;;;;;;3.38;1.30;;;29.00;33.10;;;;;;5068873;28;20620;-48
2021/04/05 12:48:30;;;;;;;2.47;1.20;;;30.40;31.40;;;;;;5073837;28;20047;-52
2021/04/05 12:51:35;;;;;;;2.00;1.30;;;31.70;31.60;;;;;;5074014;28;20054;-52
2021/04/05 12:54:48;;;;;;;2.67;1.45;;;33.40;31.30;;;;;;5075761;28;20047;-52
2021/04/05 12:57:57;;;;;;;2.53;1.40;;;33.50;30.50;;;;;;5072793;28;20067;-51
2021/04/05 13:01:04;;;;;;;2.72;1.13;;;33.90;31.90;;;;;;5075662;28;20047;-53
2021/04/05 13:04:11;;;;;;;2.60;1.40;;;34.40;30.70;;;;;;5072772;28;20043;-50
2021/04/05 13:07:45;;;;;;;2.95;1.45;;;30.80;30.40;;;;;;5069597;28;20051;-53
2021/04/05 13:11:01;;;;;;;3.10;1.45;;;28.50;31.90;;;;;;5075938;28;20397;-48
2021/04/05 13:14:23;;;;;;;2.38;1.50;;;27.40;33.50;;;;;;5082028;28;20035;-48
2021/04/05 13:17:32;;;;;;;2.72;1.42;;;27.60;32.20;;;;;;5076006;28;20051;-50
2021/04/05 13:21:00;;;;;;;3.00;1.60;;;26.40;33.40;;;;;;5081856;28;20048;-49
2021/04/05 13:24:10;;;;;;;2.17;1.42;;;25.80;35.00;;;;;;5073324;28;20064;-49
2021/04/05 13:27:22;;;;;;;3.17;1.45;;;26.20;33.40;;;;;;5075369;28;20052;-50
2021/04/05 13:30:32;;;;;;;2.78;1.33;;;29.30;33.40;;;;;;5082608;28;20044;-49
2021/04/05 13:33:42;;;;;;;4.22;1.45;;;30.70;32.70;;;;;;5071824;28;20100;-49
2021/04/05 13:36:47;;;;;;;2.58;1.23;;;30.60;32.10;;;;;;5076830;28;20051;-49
2021/04/05 13:39:52;;;;;;;4.45;1.60;;;30.40;33.20;;;;;;5073255;28;20414;-56
2021/04/05 13:42:58;;;;;;;1.67;1.20;;;30.70;33.10;;;;;;5079684;28;20048;-50
2021/04/05 13:46:08;;;;;;;5.68;1.35;;;31.90;32.80;;;;;;5071264;28;20051;-52
2021/04/05 13:49:18;;;;;;;2.50;1.15;;;32.20;33.10;;;;;;5082417;28;20111;-49
2021/04/05 13:52:26;;;;;;;2.08;1.45;;;29.00;33.00;;;;;;5072401;28;20541;-49
2021/04/05 13:55:38;;;;;;;2.47;1.50;;;29.30;32.90;;;;;;5070629;28;20035;-48
2021/04/05 13:58:52;;;;;;;2.47;1.38;;;24.20;36.10;;;;;;5071964;28;20047;-49
2021/04/05 14:01:59;;;;;;;5.82;1.83;;;25.00;36.30;;;;;;5073536;28;20043;-50
2021/04/05 14:05:12;;;;;;;2.92;1.55;;;23.60;38.60;;;;;;5073983;28;20039;-49
2021/04/05 14:08:22;;;;;;;3.35;1.70;;;24.50;38.00;;;;;;5071508;28;20051;-49
2021/04/05 14:11:37;;;;;;;4.30;1.20;;;25.50;35.90;;;;;;5071115;28;20067;-49
2021/04/05 14:14:41;;;;;;;1.98;1.27;;;24.80;36.20;;;;;;5069913;28;20043;-48
2021/04/05 14:18:01;;;;;;;3.42;1.48;;;23.50;37.70;;;;;;5074538;28;20051;-49
2021/04/05 14:21:07;;;;;;;3.67;1.50;;;22.90;38.60;;;;;;5070220;28;20039;-49
2021/04/05 14:24:23;;;;;;;10.23;1.95;;;21.80;40.10;;;;;;5078675;28;20052;-50
2021/04/05 14:27:45;;;;;;;3.70;1.20;;;22.50;38.30;;;;;;5069509;28;20036;-48
2021/04/05 14:30:57;;;;;;;9.90;1.77;;;21.70;38.90;;;;;;5072330;28;20044;-48
2021/04/05 14:34:09;;;;;;;5.35;1.92;;;21.90;38.20;;;;;;5071558;28;20055;-49
2021/04/05 14:37:38;;;;;;;2.63;1.30;;;22.20;39.20;;;;;;5069323;28;20387;-50
2021/04/05 14:40:48;;;;;;;6.95;1.80;;;22.60;38.10;;;;;;5069664;28;20045;-49
2021/04/05 14:44:18;;;;;;;6.40;1.60;;;20.70;41.40;;;;;;5067452;28;20051;-49
2021/04/05 14:47:25;;;;;;;3.88;1.30;;;21.40;42.00;;;;;;5067655;28;20047;-50
2021/04/05 14:50:37;;;;;;;7.18;1.50;;;21.40;41.00;;;;;;5067159;28;21332;-52
2021/04/05 14:53:42;;;;;;;3.13;1.50;;;22.00;41.10;;;;;;5068950;28;20043;-49
2021/04/05 14:56:48;;;;;;;3.05;1.50;;;22.00;41.00;;;;;;5068495;28;20059;-50
2021/04/05 14:59:54;;;;;;;5.38;1.55;;;21.70;41.10;;;;;;5069296;28;20040;-52
2021/04/05 15:03:13;;;;;;;2.17;1.50;;;21.30;41.10;;;;;;5069031;28;20052;-50
2021/04/05 15:06:22;;;;;;;3.78;1.27;;;20.90;41.20;;;;;;5073543;28;20035;-49
2021/04/05 15:09:30;;;;;;;4.47;1.50;;;20.00;41.30;;;;;;5067119;28;20048;-48
2021/04/05 15:12:38;;;;;;;2.08;1.45;;;20.40;44.10;;;;;;5071711;28;20040;-48
2021/04/05 15:15:43;;;;;;;3.90;1.40;;;20.30;41.10;;;;;;5068490;28;20044;-51
2021/04/05 15:18:50;;;;;;;2.28;1.40;;;20.30;43.10;;;;;;5067508;28;20043;-49
2021/04/05 15:22:00;;;;;;;3.00;1.75;;;20.10;43.00;;;;;;5068730;28;20044;-52
2021/04/05 15:25:08;;;;;;;4.70;1.50;;;20.20;43.00;;;;;;5072249;28;20043;-49
2021/04/05 15:28:16;;;;;;;4.47;1.30;;;20.00;43.80;;;;;;5070584;28;20059;-53
2021/04/05 15:31:25;;;;;;;6.97;1.67;;;19.90;43.50;;;;;;5074916;28;20290;-49
2021/04/05 15:34:30;;;;;;;6.25;1.73;;;20.00;44.50;;;;;;5073801;28;20043;-48
2021/04/05 15:37:35;;;;;;;3.50;1.70;;;19.50;43.40;;;;;;5070580;28;20039;-49
2021/04/05 15:40:46;;;;;;;3.05;1.77;;;19.50;44.30;;;;;;5071131;28;20047;-49
2021/04/05 15:44:08;;;;;;;3.05;1.50;;;19.70;45.80;;;;;;5070451;28;20051;-49
2021/04/05 15:47:35;;;;;;;9.05;2.05;;;19.70;44.50;;;;;;5071435;28;20047;-48
2021/04/05 15:51:00;;;;;;;6.20;1.80;;;19.30;44.80;;;;;;5084453;28;20032;-48
2021/04/05 15:54:12;;;;;;;5.43;2.50;;;19.10;47.30;;;;;;5069509;28;20043;-48
2021/04/05 15:57:21;;;;;;;5.25;1.80;;;18.90;48.80;;;;;;5070887;28;20063;-50
2021/04/05 16:00:27;;;;;;;3.97;2.25;;;18.70;49.70;;;;;;5075643;28;20047;-48
2021/04/05 16:03:52;;;;;;;6.95;1.83;;;18.50;50.40;;;;;;5070855;28;20102;-49
2021/04/05 16:07:04;;;;;;;12.13;2.90;;;18.50;52.40;;;;;;5076192;28;20044;-49
2021/04/05 16:10:23;;;;;;;8.40;2.47;;;18.40;52.10;;;;;;5076201;28;20056;-49
2021/04/05 16:13:44;;;;;;;7.13;1.88;;;18.10;53.80;;;;;;5072126;28;20403;-47
2021/04/05 16:17:04;;;;;;;5.22;2.33;;;17.70;54.70;;;;;;5075639;28;20525;-50
2021/04/05 16:20:12;;;;;;;5.72;2.15;;;17.40;56.00;;;;;;5077463;28;20051;-48
2021/04/05 16:23:31;;;;;;;4.18;2.05;;;17.20;59.30;;;;;;5073923;28;20048;-48
2021/04/05 16:26:38;;;;;;;6.80;2.47;;;16.80;57.90;;;;;;5077114;28;20039;-49
2021/04/05 16:29:49;;;;;;;3.55;2.00;;;16.80;58.40;;;;;;5080864;28;20043;-47
2021/04/05 16:32:57;;;;;;;3.58;2.10;;;16.70;60.10;;;;;;5077336;28;20509;-48
2021/04/05 16:36:06;;;;;;;9.20;3.60;;;16.80;60.00;;;;;;5073882;28;20043;-48
2021/04/05 16:39:14;;;;;;;6.65;2.05;;;16.80;59.50;;;;;;5078064;28;20038;-52
2021/04/05 16:42:22;;;;;;;12.95;1.70;;;16.60;59.60;;;;;;5086983;28;20059;-50
2021/04/05 16:45:28;;;;;;;5.82;2.40;;;16.70;60.00;;;;;;5085286;28;20054;-48